sensor_id;sensor_type;location;lat;lon;timestamp;pressure;altitude;pressure_sealevel;temperature;humidity
75815;BME280;64451;45.574;14.224;2022-11-18T00:00:25;95375.13;;;9.67;95.31
75815;BME280;64451;45.574;14.224;2022-11-18T00:02:25;95381.94;;;9.39;96.37
75815;BME280;64451;45.574;14.224;2022-11-18T00:04:25;95379.72;;;9.32;97.85
75815;BME280;64451;45.574;14.224;2022-11-18T00:06:27;95365.81;;;9.56;96.63
75815;BME280;64451;45.574;14.224;2022-11-18T00:08:28;95351.47;;;9.52;96.32
75815;BME280;64451;45.574;14.224;2022-11-18T00:10:29;95354.44;;;9.42;96.75
75815;BME280;64451;45.574;14.224;2022-11-18T00:12:29;95355.41;;;9.28;97.36
75815;BME280;64451;45.574;14.224;2022-11-18T00:14:48;95357.91;;;8.99;99.37
75815;BME280;64451;45.574;14.224;2022-11-18T00:16:59;95357.28;;;9.02;100.00
75815;BME280;64451;45.574;14.224;2022-11-18T00:19:00;95352.41;;;9.39;98.84
75815;BME280;64451;45.574;14.224;2022-11-18T00:21:02;95350.81;;;9.20;98.87
75815;BME280;64451;45.574;14.224;2022-11-18T00:23:02;95346.84;;;9.09;99.73
75815;BME280;64451;45.574;14.224;2022-11-18T00:25:03;95343.38;;;9.17;99.91
75815;BME280;64451;45.574;14.224;2022-11-18T00:27:03;95338.50;;;9.02;100.00
75815;BME280;64451;45.574;14.224;2022-11-18T00:29:04;95341.50;;;9.18;100.00
75815;BME280;64451;45.574;14.224;2022-11-18T00:31:09;95335.66;;;9.16;100.00
75815;BME280;64451;45.574;14.224;2022-11-18T00:33:10;95331.06;;;9.34;100.00
75815;BME280;64451;45.574;14.224;2022-11-18T00:35:10;95326.97;;;9.62;98.96
75815;BME280;64451;45.574;14.224;2022-11-18T00:37:10;95322.38;;;9.63;97.50
75815;BME280;64451;45.574;14.224;2022-11-18T00:39:12;95326.19;;;9.53;97.59
75815;BME280;64451;45.574;14.224;2022-11-18T00:41:14;95336.91;;;9.53;97.59
75815;BME280;64451;45.574;14.224;2022-11-18T00:43:15;95334.25;;;9.53;97.53
75815;BME280;64451;45.574;14.224;2022-11-18T00:45:15;95332.47;;;9.66;97.40
75815;BME280;64451;45.574;14.224;2022-11-18T00:47:16;95320.13;;;9.73;96.61
75815;BME280;64451;45.574;14.224;2022-11-18T00:49:16;95323.28;;;9.67;96.42
75815;BME280;64451;45.574;14.224;2022-11-18T00:51:17;95317.34;;;9.52;97.34
75815;BME280;64451;45.574;14.224;2022-11-18T00:53:18;95314.16;;;9.50;97.65
75815;BME280;64451;45.574;14.224;2022-11-18T00:55:19;95306.72;;;9.65;97.70
75815;BME280;64451;45.574;14.224;2022-11-18T00:57:19;95303.84;;;9.78;97.02
75815;BME280;64451;45.574;14.224;2022-11-18T00:59:19;95308.63;;;9.55;97.58
75815;BME280;64451;45.574;14.224;2022-11-18T01:01:20;95288.44;;;9.32;98.48
75815;BME280;64451;45.574;14.224;2022-11-18T01:03:20;95292.69;;;9.33;98.85
75815;BME280;64451;45.574;14.224;2022-11-18T01:05:20;95295.56;;;9.28;99.69
75815;BME280;64451;45.574;14.224;2022-11-18T01:07:21;95297.63;;;9.22;99.73
75815;BME280;64451;45.574;14.224;2022-11-18T01:09:21;95297.94;;;9.12;100.00
75815;BME280;64451;45.574;14.224;2022-11-18T01:11:21;95295.41;;;9.24;100.00
75815;BME280;64451;45.574;14.224;2022-11-18T01:13:40;95301.41;;;9.21;100.00
75815;BME280;64451;45.574;14.224;2022-11-18T01:15:42;95307.09;;;9.28;100.00
75815;BME280;64451;45.574;14.224;2022-11-18T01:17:43;95291.28;;;9.53;98.93
75815;BME280;64451;45.574;14.224;2022-11-18T01:19:43;95287.78;;;9.61;98.34
75815;BME280;64451;45.574;14.224;2022-11-18T01:21:43;95284.28;;;9.69;97.25
75815;BME280;64451;45.574;14.224;2022-11-18T01:23:44;95276.41;;;9.55;97.95
75815;BME280;64451;45.574;14.224;2022-11-18T01:25:46;95295.69;;;9.49;97.79
75815;BME280;64451;45.574;14.224;2022-11-18T01:27:47;95294.44;;;9.38;99.06
75815;BME280;64451;45.574;14.224;2022-11-18T01:29:48;95288.44;;;9.32;99.42
75815;BME280;64451;45.574;14.224;2022-11-18T01:31:48;95289.53;;;9.48;99.39
75815;BME280;64451;45.574;14.224;2022-11-18T01:33:49;95286.22;;;9.60;99.32
75815;BME280;64451;45.574;14.224;2022-11-18T01:35:49;95275.53;;;9.81;97.88
75815;BME280;64451;45.574;14.224;2022-11-18T01:37:49;95272.72;;;9.77;97.06
75815;BME280;64451;45.574;14.224;2022-11-18T01:39:50;95266.34;;;9.91;96.91
75815;BME280;64451;45.574;14.224;2022-11-18T01:41:50;95260.88;;;9.78;96.64
75815;BME280;64451;45.574;14.224;2022-11-18T01:43:58;95256.34;;;9.62;97.35
75815;BME280;64451;45.574;14.224;2022-11-18T01:45:58;95259.66;;;9.50;97.55
75815;BME280;64451;45.574;14.224;2022-11-18T01:48:20;95258.41;;;9.47;98.08
75815;BME280;64451;45.574;14.224;2022-11-18T01:50:24;95252.59;;;9.45;98.74
75815;BME280;64451;45.574;14.224;2022-11-18T01:52:25;95257.94;;;9.45;98.79
75815;BME280;64451;45.574;14.224;2022-11-18T01:54:33;95257.16;;;9.45;99.18
75815;BME280;64451;45.574;14.224;2022-11-18T01:56:46;95244.25;;;9.29;99.70
75815;BME280;64451;45.574;14.224;2022-11-18T01:58:53;95233.50;;;9.29;100.00
75815;BME280;64451;45.574;14.224;2022-11-18T02:00:55;95231.44;;;9.35;99.93
75815;BME280;64451;45.574;14.224;2022-11-18T02:02:56;95234.28;;;9.39;99.90
75815;BME280;64451;45.574;14.224;2022-11-18T02:04:58;95221.88;;;9.64;99.48
75815;BME280;64451;45.574;14.224;2022-11-18T02:07:00;95220.63;;;9.61;99.02
75815;BME280;64451;45.574;14.224;2022-11-18T02:09:01;95226.31;;;9.68;99.03
75815;BME280;64451;45.574;14.224;2022-11-18T02:11:09;95220.13;;;9.76;99.43
75815;BME280;64451;45.574;14.224;2022-11-18T02:13:29;95223.75;;;9.72;99.33
75815;BME280;64451;45.574;14.224;2022-11-18T02:16:10;95221.31;;;9.88;99.35
75815;BME280;64451;45.574;14.224;2022-11-18T02:18:47;95222.53;;;9.99;98.91
75815;BME280;64451;45.574;14.224;2022-11-18T02:20:55;95222.66;;;10.40;97.78
75815;BME280;64451;45.574;14.224;2022-11-18T02:30:13;95222.41;;;10.75;95.68
75815;BME280;64451;45.574;14.224;2022-11-18T02:32:18;95228.19;;;10.65;95.17
75815;BME280;64451;45.574;14.224;2022-11-18T02:34:48;95222.00;;;10.64;95.13
75815;BME280;64451;45.574;14.224;2022-11-18T02:36:59;95220.81;;;10.74;94.60
75815;BME280;64451;45.574;14.224;2022-11-18T02:39:08;95218.09;;;10.62;95.72
75815;BME280;64451;45.574;14.224;2022-11-18T02:41:31;95220.09;;;10.65;95.37
75815;BME280;64451;45.574;14.224;2022-11-18T02:43:38;95213.72;;;10.49;96.46
75815;BME280;64451;45.574;14.224;2022-11-18T02:45:43;95209.63;;;10.51;96.50
75815;BME280;64451;45.574;14.224;2022-11-18T02:47:46;95204.56;;;10.50;96.58
75815;BME280;64451;45.574;14.224;2022-11-18T02:49:53;95205.31;;;10.92;94.36
75815;BME280;64451;45.574;14.224;2022-11-18T02:51:55;95202.09;;;10.98;94.21
75815;BME280;64451;45.574;14.224;2022-11-18T02:53:59;95201.66;;;10.96;94.58
75815;BME280;64451;45.574;14.224;2022-11-18T02:56:02;95200.94;;;10.66;95.89
75815;BME280;64451;45.574;14.224;2022-11-18T02:58:04;95197.25;;;10.50;96.85
75815;BME280;64451;45.574;14.224;2022-11-18T03:00:05;95184.09;;;10.78;95.25
75815;BME280;64451;45.574;14.224;2022-11-18T03:02:07;95181.66;;;10.85;94.66
75815;BME280;64451;45.574;14.224;2022-11-18T03:04:08;95183.94;;;10.95;93.92
75815;BME280;64451;45.574;14.224;2022-11-18T03:06:29;95183.34;;;11.11;92.63
75815;BME280;64451;45.574;14.224;2022-11-18T03:08:47;95183.78;;;10.92;93.37
75815;BME280;64451;45.574;14.224;2022-11-18T03:10:57;95173.06;;;10.71;94.98
75815;BME280;64451;45.574;14.224;2022-11-18T03:13:13;95170.59;;;10.45;96.52
75815;BME280;64451;45.574;14.224;2022-11-18T03:17:45;95165.19;;;10.66;95.93
75815;BME280;64451;45.574;14.224;2022-11-18T03:20:48;95157.84;;;10.54;95.54
75815;BME280;64451;45.574;14.224;2022-11-18T03:22:35;95153.00;;;10.27;97.67
75815;BME280;64451;45.574;14.224;2022-11-18T03:25:05;95141.94;;;10.20;98.08
75815;BME280;64451;45.574;14.224;2022-11-18T03:27:23;95139.66;;;10.09;98.26
75815;BME280;64451;45.574;14.224;2022-11-18T03:29:29;95138.38;;;10.07;98.78
75815;BME280;64451;45.574;14.224;2022-11-18T03:31:54;95139.94;;;10.08;98.69
75815;BME280;64451;45.574;14.224;2022-11-18T03:36:23;95131.09;;;10.07;98.56
75815;BME280;64451;45.574;14.224;2022-11-18T03:38:29;95124.56;;;10.17;97.90
75815;BME280;64451;45.574;14.224;2022-11-18T03:40:32;95114.75;;;10.21;97.73
75815;BME280;64451;45.574;14.224;2022-11-18T03:42:37;95121.78;;;10.34;96.61
75815;BME280;64451;45.574;14.224;2022-11-18T03:44:43;95123.28;;;10.23;97.23
75815;BME280;64451;45.574;14.224;2022-11-18T03:46:52;95117.16;;;10.14;97.90
75815;BME280;64451;45.574;14.224;2022-11-18T03:48:55;95120.50;;;10.11;98.20
75815;BME280;64451;45.574;14.224;2022-11-18T03:51:05;95119.50;;;10.16;98.22
75815;BME280;64451;45.574;14.224;2022-11-18T03:53:08;95120.97;;;10.13;98.54
75815;BME280;64451;45.574;14.224;2022-11-18T03:55:13;95125.19;;;10.23;97.95
75815;BME280;64451;45.574;14.224;2022-11-18T03:57:24;95135.88;;;10.31;97.36
75815;BME280;64451;45.574;14.224;2022-11-18T03:59:32;95146.00;;;10.34;97.39
75815;BME280;64451;45.574;14.224;2022-11-18T04:01:48;95151.16;;;10.39;97.31
75815;BME280;64451;45.574;14.224;2022-11-18T04:03:51;95156.69;;;10.43;97.28
75815;BME280;64451;45.574;14.224;2022-11-18T04:05:57;95164.03;;;10.55;97.06
75815;BME280;64451;45.574;14.224;2022-11-18T04:08:04;95163.06;;;10.59;96.72
75815;BME280;64451;45.574;14.224;2022-11-18T04:10:15;95153.72;;;10.78;95.52
75815;BME280;64451;45.574;14.224;2022-11-18T04:12:17;95157.63;;;10.80;94.98
75815;BME280;64451;45.574;14.224;2022-11-18T04:14:19;95149.94;;;10.91;94.76
75815;BME280;64451;45.574;14.224;2022-11-18T04:16:19;95143.44;;;10.92;93.81
75815;BME280;64451;45.574;14.224;2022-11-18T04:18:20;95135.59;;;10.87;94.12
75815;BME280;64451;45.574;14.224;2022-11-18T04:20:21;95121.09;;;10.79;94.38
75815;BME280;64451;45.574;14.224;2022-11-18T04:22:21;95116.75;;;10.66;94.89
75815;BME280;64451;45.574;14.224;2022-11-18T04:24:21;95117.69;;;10.70;94.50
75815;BME280;64451;45.574;14.224;2022-11-18T04:26:22;95105.56;;;10.64;94.84
75815;BME280;64451;45.574;14.224;2022-11-18T04:28:22;95110.06;;;10.72;94.70
75815;BME280;64451;45.574;14.224;2022-11-18T04:30:22;95116.84;;;10.57;95.72
75815;BME280;64451;45.574;14.224;2022-11-18T04:32:23;95114.28;;;10.61;95.40
75815;BME280;64451;45.574;14.224;2022-11-18T04:34:23;95112.97;;;10.67;95.24
75815;BME280;64451;45.574;14.224;2022-11-18T04:36:23;95112.25;;;10.58;95.79
75815;BME280;64451;45.574;14.224;2022-11-18T04:38:24;95102.19;;;10.67;95.18
75815;BME280;64451;45.574;14.224;2022-11-18T04:40:24;95097.69;;;10.59;95.65
75815;BME280;64451;45.574;14.224;2022-11-18T04:42:24;95090.88;;;10.40;96.79
75815;BME280;64451;45.574;14.224;2022-11-18T04:44:30;95088.59;;;10.51;97.12
75815;BME280;64451;45.574;14.224;2022-11-18T04:46:31;95086.38;;;10.65;95.78
75815;BME280;64451;45.574;14.224;2022-11-18T04:48:31;95089.91;;;10.78;95.23
75815;BME280;64451;45.574;14.224;2022-11-18T04:50:31;95092.28;;;10.59;96.23
75815;BME280;64451;45.574;14.224;2022-11-18T04:52:31;95077.44;;;10.40;97.01
75815;BME280;64451;45.574;14.224;2022-11-18T04:54:32;95077.94;;;10.55;96.63
75815;BME280;64451;45.574;14.224;2022-11-18T04:56:32;95082.34;;;10.59;96.10
75815;BME280;64451;45.574;14.224;2022-11-18T04:58:33;95073.88;;;10.49;97.09
75815;BME280;64451;45.574;14.224;2022-11-18T05:00:33;95067.72;;;10.48;97.94
75815;BME280;64451;45.574;14.224;2022-11-18T05:02:33;95071.66;;;10.51;97.74
75815;BME280;64451;45.574;14.224;2022-11-18T05:04:34;95079.97;;;10.58;97.53
75815;BME280;64451;45.574;14.224;2022-11-18T05:06:34;95090.16;;;10.31;96.67
75815;BME280;64451;45.574;14.224;2022-11-18T05:08:34;95087.56;;;10.23;94.79
75815;BME280;64451;45.574;14.224;2022-11-18T05:10:37;95087.41;;;10.19;95.25
75815;BME280;64451;45.574;14.224;2022-11-18T05:12:37;95091.56;;;10.08;95.94
75815;BME280;64451;45.574;14.224;2022-11-18T05:14:50;95097.78;;;10.00;96.81
75815;BME280;64451;45.574;14.224;2022-11-18T05:16:51;95104.50;;;9.94;97.57
75815;BME280;64451;45.574;14.224;2022-11-18T05:18:52;95084.25;;;9.96;97.92
75815;BME280;64451;45.574;14.224;2022-11-18T05:20:52;95092.22;;;9.84;98.00
75815;BME280;64451;45.574;14.224;2022-11-18T05:22:52;95080.22;;;9.81;98.45
75815;BME280;64451;45.574;14.224;2022-11-18T05:24:53;95080.28;;;9.73;98.25
75815;BME280;64451;45.574;14.224;2022-11-18T05:26:53;95080.28;;;9.73;98.54
75815;BME280;64451;45.574;14.224;2022-11-18T05:28:54;95086.88;;;9.75;98.30
75815;BME280;64451;45.574;14.224;2022-11-18T05:30:54;95080.22;;;9.81;98.23
75815;BME280;64451;45.574;14.224;2022-11-18T05:32:54;95090.13;;;9.90;98.14
75815;BME280;64451;45.574;14.224;2022-11-18T05:34:55;95088.38;;;9.94;97.97
75815;BME280;64451;45.574;14.224;2022-11-18T05:36:55;95083.25;;;10.01;96.62
75815;BME280;64451;45.574;14.224;2022-11-18T05:38:59;95100.50;;;10.00;97.05
75815;BME280;64451;45.574;14.224;2022-11-18T05:41:00;95089.59;;;10.17;95.85
75815;BME280;64451;45.574;14.224;2022-11-18T05:43:01;95092.28;;;10.17;95.48
75815;BME280;64451;45.574;14.224;2022-11-18T05:45:10;95087.25;;;10.16;95.31
75815;BME280;64451;45.574;14.224;2022-11-18T05:47:11;95086.19;;;10.08;95.88
75815;BME280;64451;45.574;14.224;2022-11-18T05:49:11;95077.78;;;10.18;94.74
75815;BME280;64451;45.574;14.224;2022-11-18T05:51:11;95075.72;;;10.15;93.87
75815;BME280;64451;45.574;14.224;2022-11-18T05:53:12;95077.03;;;10.09;94.57
75815;BME280;64451;45.574;14.224;2022-11-18T05:55:14;95080.13;;;9.40;97.48
75815;BME280;64451;45.574;14.224;2022-11-18T05:57:16;95071.72;;;9.50;97.79
75815;BME280;64451;45.574;14.224;2022-11-18T05:59:16;95078.59;;;9.68;97.53
75815;BME280;64451;45.574;14.224;2022-11-18T06:01:21;95065.63;;;9.91;96.48
75815;BME280;64451;45.574;14.224;2022-11-18T06:03:25;95068.19;;;9.88;95.79
75815;BME280;64451;45.574;14.224;2022-11-18T06:05:26;95070.13;;;9.78;96.40
75815;BME280;64451;45.574;14.224;2022-11-18T06:07:41;95066.88;;;9.94;96.12
75815;BME280;64451;45.574;14.224;2022-11-18T06:09:47;95064.81;;;9.91;95.86
75815;BME280;64451;45.574;14.224;2022-11-18T06:11:55;95071.28;;;9.39;97.17
75815;BME280;64451;45.574;14.224;2022-11-18T06:14:01;95063.84;;;9.45;97.27
75815;BME280;64451;45.574;14.224;2022-11-18T06:16:02;95069.06;;;9.41;98.96
75815;BME280;64451;45.574;14.224;2022-11-18T06:18:10;95062.63;;;9.63;97.87
75815;BME280;64451;45.574;14.224;2022-11-18T06:20:13;95068.47;;;9.65;97.68
75815;BME280;64451;45.574;14.224;2022-11-18T06:22:13;95077.41;;;9.48;97.78
75815;BME280;64451;45.574;14.224;2022-11-18T06:24:14;95074.44;;;9.41;98.80
75815;BME280;64451;45.574;14.224;2022-11-18T06:26:15;95092.97;;;9.25;99.69
75815;BME280;64451;45.574;14.224;2022-11-18T06:28:16;95089.81;;;9.32;99.21
75815;BME280;64451;45.574;14.224;2022-11-18T06:30:17;95097.38;;;9.68;98.63
75815;BME280;64451;45.574;14.224;2022-11-18T06:32:18;95099.31;;;9.89;96.31
75815;BME280;64451;45.574;14.224;2022-11-18T06:34:18;95086.31;;;9.91;95.53
75815;BME280;64451;45.574;14.224;2022-11-18T06:36:18;95088.78;;;9.75;96.20
75815;BME280;64451;45.574;14.224;2022-11-18T06:38:20;95099.53;;;9.45;98.32
75815;BME280;64451;45.574;14.224;2022-11-18T06:40:22;95110.25;;;9.54;99.03
75815;BME280;64451;45.574;14.224;2022-11-18T06:42:22;95094.91;;;9.84;97.70
75815;BME280;64451;45.574;14.224;2022-11-18T06:44:41;95076.06;;;9.63;97.98
75815;BME280;64451;45.574;14.224;2022-11-18T06:46:41;95076.44;;;9.53;98.74
75815;BME280;64451;45.574;14.224;2022-11-18T06:48:58;95077.56;;;9.52;98.80
75815;BME280;64451;45.574;14.224;2022-11-18T06:50:58;95073.09;;;9.56;98.62
75815;BME280;64451;45.574;14.224;2022-11-18T06:52:59;95081.94;;;9.56;98.78
75815;BME280;64451;45.574;14.224;2022-11-18T06:55:00;95081.34;;;9.80;98.38
75815;BME280;64451;45.574;14.224;2022-11-18T06:57:00;95083.06;;;9.85;97.70
75815;BME280;64451;45.574;14.224;2022-11-18T06:59:01;95080.28;;;9.73;98.31
75815;BME280;64451;45.574;14.224;2022-11-18T07:01:18;95078.88;;;9.67;99.16
75815;BME280;64451;45.574;14.224;2022-11-18T07:03:20;95068.28;;;9.70;98.91
75815;BME280;64451;45.574;14.224;2022-11-18T07:05:21;95077.91;;;9.71;98.88
75815;BME280;64451;45.574;14.224;2022-11-18T07:07:21;95074.00;;;9.69;99.38
75815;BME280;64451;45.574;14.224;2022-11-18T07:09:21;95079.50;;;9.72;99.86
75815;BME280;64451;45.574;14.224;2022-11-18T07:11:24;95077.91;;;9.71;99.93
75815;BME280;64451;45.574;14.224;2022-11-18T07:13:25;95077.94;;;9.92;99.91
75815;BME280;64451;45.574;14.224;2022-11-18T07:15:26;95076.34;;;9.91;98.96
75815;BME280;64451;45.574;14.224;2022-11-18T07:17:29;95071.25;;;9.98;99.14
75815;BME280;64451;45.574;14.224;2022-11-18T07:19:29;95068.50;;;9.86;99.02
75815;BME280;64451;45.574;14.224;2022-11-18T07:21:29;95068.63;;;9.90;99.33
75815;BME280;64451;45.574;14.224;2022-11-18T07:23:30;95073.81;;;9.95;98.99
75815;BME280;64451;45.574;14.224;2022-11-18T07:25:31;95080.28;;;10.23;98.43
75815;BME280;64451;45.574;14.224;2022-11-18T07:27:32;95079.00;;;10.41;96.90
75815;BME280;64451;45.574;14.224;2022-11-18T07:29:32;95070.56;;;10.52;96.66
75815;BME280;64451;45.574;14.224;2022-11-18T07:31:32;95076.22;;;10.71;95.07
75815;BME280;64451;45.574;14.224;2022-11-18T07:33:37;95079.34;;;10.73;94.44
75815;BME280;64451;45.574;14.224;2022-11-18T07:35:38;95083.75;;;10.45;96.29
75815;BME280;64451;45.574;14.224;2022-11-18T07:37:38;95081.50;;;10.47;96.46
75815;BME280;64451;45.574;14.224;2022-11-18T07:39:39;95075.84;;;10.60;95.70
75815;BME280;64451;45.574;14.224;2022-11-18T07:41:39;95078.84;;;10.59;96.15
75815;BME280;64451;45.574;14.224;2022-11-18T07:43:41;95080.63;;;10.88;94.52
75815;BME280;64451;45.574;14.224;2022-11-18T07:45:41;95089.00;;;10.74;94.50
75815;BME280;64451;45.574;14.224;2022-11-18T07:47:42;95083.94;;;10.39;96.39
75815;BME280;64451;45.574;14.224;2022-11-18T07:49:42;95086.78;;;10.43;96.86
75815;BME280;64451;45.574;14.224;2022-11-18T07:51:42;95080.56;;;10.63;95.99
75815;BME280;64451;45.574;14.224;2022-11-18T07:53:43;95073.28;;;10.64;95.41
75815;BME280;64451;45.574;14.224;2022-11-18T07:55:43;95076.78;;;10.44;95.82
75815;BME280;64451;45.574;14.224;2022-11-18T07:57:43;95081.59;;;10.71;95.14
75815;BME280;64451;45.574;14.224;2022-11-18T07:59:44;95080.59;;;10.76;94.26
75815;BME280;64451;45.574;14.224;2022-11-18T08:01:44;95066.16;;;10.80;94.30
75815;BME280;64451;45.574;14.224;2022-11-18T08:03:45;95054.31;;;10.93;93.68
75815;BME280;64451;45.574;14.224;2022-11-18T08:05:46;95046.78;;;10.99;93.49
75815;BME280;64451;45.574;14.224;2022-11-18T08:07:46;95041.63;;;10.94;93.58
75815;BME280;64451;45.574;14.224;2022-11-18T08:09:47;95049.03;;;10.85;94.54
75815;BME280;64451;45.574;14.224;2022-11-18T08:11:47;95048.41;;;10.67;95.72
75815;BME280;64451;45.574;14.224;2022-11-18T08:13:47;95055.81;;;10.70;95.83
75815;BME280;64451;45.574;14.224;2022-11-18T08:15:48;95042.28;;;10.91;94.81
75815;BME280;64451;45.574;14.224;2022-11-18T08:17:48;95048.81;;;11.02;94.18
75815;BME280;64451;45.574;14.224;2022-11-18T08:19:48;95036.94;;;11.03;93.83
75815;BME280;64451;45.574;14.224;2022-11-18T08:21:49;95034.00;;;11.08;94.27
75815;BME280;64451;45.574;14.224;2022-11-18T08:23:54;95043.78;;;11.13;93.72
75815;BME280;64451;45.574;14.224;2022-11-18T08:26:10;95044.03;;;11.20;93.66
75815;BME280;64451;45.574;14.224;2022-11-18T08:28:12;95041.53;;;11.15;93.67
75815;BME280;64451;45.574;14.224;2022-11-18T08:30:12;95038.50;;;11.16;93.88
75815;BME280;64451;45.574;14.224;2022-11-18T08:32:13;95038.50;;;11.16;93.92
75815;BME280;64451;45.574;14.224;2022-11-18T08:34:13;95039.75;;;11.07;93.71
75815;BME280;64451;45.574;14.224;2022-11-18T08:36:20;95046.00;;;10.86;94.90
75815;BME280;64451;45.574;14.224;2022-11-18T08:38:21;95050.16;;;10.96;94.35
75815;BME280;64451;45.574;14.224;2022-11-18T08:40:21;95045.56;;;11.09;94.04
75815;BME280;64451;45.574;14.224;2022-11-18T08:42:22;95047.06;;;11.18;93.28
75815;BME280;64451;45.574;14.224;2022-11-18T08:44:24;95040.53;;;11.07;93.46
75815;BME280;64451;45.574;14.224;2022-11-18T08:46:24;95049.63;;;11.15;93.35
75815;BME280;64451;45.574;14.224;2022-11-18T08:48:25;95047.19;;;11.34;92.47
75815;BME280;64451;45.574;14.224;2022-11-18T08:50:26;95044.38;;;11.43;91.69
75815;BME280;64451;45.574;14.224;2022-11-18T08:52:26;95040.31;;;11.37;92.15
75815;BME280;64451;45.574;14.224;2022-11-18T08:54:26;95049.16;;;11.13;93.35
75815;BME280;64451;45.574;14.224;2022-11-18T08:56:27;95040.09;;;11.17;93.47
75815;BME280;64451;45.574;14.224;2022-11-18T08:58:27;95052.84;;;11.08;93.95
75815;BME280;64451;45.574;14.224;2022-11-18T09:00:28;95053.56;;;11.17;93.54
75815;BME280;64451;45.574;14.224;2022-11-18T09:02:28;95041.97;;;11.05;93.30
75815;BME280;64451;45.574;14.224;2022-11-18T09:04:28;95036.31;;;10.73;95.09
75815;BME280;64451;45.574;14.224;2022-11-18T09:06:29;95037.41;;;10.60;96.41
75815;BME280;64451;45.574;14.224;2022-11-18T09:08:29;95030.28;;;10.76;95.67
75815;BME280;64451;45.574;14.224;2022-11-18T09:10:30;95035.19;;;10.74;95.26
75815;BME280;64451;45.574;14.224;2022-11-18T09:12:33;95027.53;;;11.09;93.69
75815;BME280;64451;45.574;14.224;2022-11-18T09:14:34;95039.41;;;11.20;93.21
75815;BME280;64451;45.574;14.224;2022-11-18T09:16:34;95036.38;;;11.22;92.94
75815;BME280;64451;45.574;14.224;2022-11-18T09:18:35;95045.44;;;10.93;94.69
75815;BME280;64451;45.574;14.224;2022-11-18T09:20:35;95052.25;;;10.78;97.14
75815;BME280;64451;45.574;14.224;2022-11-18T09:22:36;95057.84;;;10.73;96.99
75815;BME280;64451;45.574;14.224;2022-11-18T09:24:36;95054.72;;;10.83;96.68
75815;BME280;64451;45.574;14.224;2022-11-18T09:26:37;95049.06;;;11.09;95.21
75815;BME280;64451;45.574;14.224;2022-11-18T09:28:38;95047.47;;;11.08;94.98
75815;BME280;64451;45.574;14.224;2022-11-18T09:30:38;95061.91;;;10.91;95.92
75815;BME280;64451;45.574;14.224;2022-11-18T09:32:39;95047.13;;;10.97;95.69
75815;BME280;64451;45.574;14.224;2022-11-18T09:34:39;95049.38;;;11.08;95.27
75815;BME280;64451;45.574;14.224;2022-11-18T09:36:39;95053.97;;;11.07;95.56
75815;BME280;64451;45.574;14.224;2022-11-18T09:38:40;95049.75;;;11.43;92.90
75815;BME280;64451;45.574;14.224;2022-11-18T09:43:16;95061.75;;;11.45;93.81
75815;BME280;64451;45.574;14.224;2022-11-18T09:45:22;95062.78;;;11.53;92.49
75815;BME280;64451;45.574;14.224;2022-11-18T09:47:29;95057.81;;;11.55;92.27
75815;BME280;64451;45.574;14.224;2022-11-18T09:49:32;95056.69;;;11.56;92.89
75815;BME280;64451;45.574;14.224;2022-11-18T09:51:43;95065.91;;;11.55;92.22
75815;BME280;64451;45.574;14.224;2022-11-18T09:53:45;95062.66;;;11.62;93.79
75815;BME280;64451;45.574;14.224;2022-11-18T09:55:47;95060.09;;;11.53;93.70
75815;BME280;64451;45.574;14.224;2022-11-18T09:57:56;95068.63;;;11.67;94.08
75815;BME280;64451;45.574;14.224;2022-11-18T09:59:57;95063.41;;;11.74;91.23
75815;BME280;64451;45.574;14.224;2022-11-18T10:02:25;95055.91;;;11.56;92.92
75815;BME280;64451;45.574;14.224;2022-11-18T10:04:27;95055.69;;;11.73;89.61
75815;BME280;64451;45.574;14.224;2022-11-18T10:06:31;95061.44;;;11.59;90.95
75815;BME280;64451;45.574;14.224;2022-11-18T10:08:44;95066.91;;;11.38;93.38
75815;BME280;64451;45.574;14.224;2022-11-18T10:13:02;95074.75;;;11.31;93.06
75815;BME280;64451;45.574;14.224;2022-11-18T10:15:20;95077.13;;;11.33;94.29
75815;BME280;64451;45.574;14.224;2022-11-18T10:18:04;95073.41;;;11.25;94.90
75815;BME280;64451;45.574;14.224;2022-11-18T10:20:20;95075.66;;;11.23;95.81
75815;BME280;64451;45.574;14.224;2022-11-18T10:22:31;95072.50;;;11.33;94.90
75815;BME280;64451;45.574;14.224;2022-11-18T10:24:36;95078.69;;;11.21;95.55
75815;BME280;64451;45.574;14.224;2022-11-18T10:26:39;95088.34;;;11.22;94.82
75815;BME280;64451;45.574;14.224;2022-11-18T10:28:40;95086.91;;;11.37;94.51
75815;BME280;64451;45.574;14.224;2022-11-18T10:30:40;95078.59;;;11.54;93.67
75815;BME280;64451;45.574;14.224;2022-11-18T10:33:03;95077.81;;;11.54;93.73
75815;BME280;64451;45.574;14.224;2022-11-18T10:35:31;95090.97;;;10.98;95.56
75815;BME280;64451;45.574;14.224;2022-11-18T10:37:34;95095.00;;;10.92;96.38
75815;BME280;64451;45.574;14.224;2022-11-18T10:39:48;95099.28;;;10.93;96.51
75815;BME280;64451;45.574;14.224;2022-11-18T10:41:51;95098.00;;;10.90;96.63
75815;BME280;64451;45.574;14.224;2022-11-18T10:43:54;95094.84;;;11.09;96.24
75815;BME280;64451;45.574;14.224;2022-11-18T10:45:55;95093.72;;;11.10;95.68
75815;BME280;64451;45.574;14.224;2022-11-18T10:47:59;95103.91;;;11.05;95.58
75815;BME280;64451;45.574;14.224;2022-11-18T10:50:07;95100.50;;;10.95;95.96
75815;BME280;64451;45.574;14.224;2022-11-18T10:52:21;95091.31;;;10.96;95.46
75815;BME280;64451;45.574;14.224;2022-11-18T10:54:22;95092.91;;;11.10;94.53
75815;BME280;64451;45.574;14.224;2022-11-18T10:56:22;95093.66;;;10.86;95.42
75815;BME280;64451;45.574;14.224;2022-11-18T10:58:24;95103.06;;;10.92;95.07
75815;BME280;64451;45.574;14.224;2022-11-18T11:02:39;95111.56;;;11.27;94.33
75815;BME280;64451;45.574;14.224;2022-11-18T11:04:40;95096.53;;;11.26;94.57
75815;BME280;64451;45.574;14.224;2022-11-18T11:06:41;95105.81;;;11.04;94.49
75815;BME280;64451;45.574;14.224;2022-11-18T11:08:51;95104.38;;;11.19;94.35